Time;durP1;ratioP1;P1;durP2;ratioP2;P2;SDS_P1;SDS_P2;PMS_P1;PMS_P2;Temp;Humidity;BMP_temperature;BMP_pressure;BME280_temperature;BME280_humidity;BME280_pressure;Samples;Min_cycle;Max_cycle;Signal;HPM_P1;HPM_P2
2023/10/18 00:02:18;;;;;;;6.20;1.50;;;;;;;7.10;92.51;99734.67;109627;1251;57433;-62
2023/10/18 00:05:10;;;;;;;8.20;1.70;;;;;;;7.05;92.64;99732.52;109727;1251;58712;-63
2023/10/18 00:07:57;;;;;;;7.30;1.60;;;;;;;7.04;92.73;99727.20;109743;1250;73045;-62
2023/10/18 00:10:46;;;;;;;5.30;1.80;;;;;;;7.05;92.66;99726.39;109742;1251;67842;-64
2023/10/18 00:13:33;;;;;;;6.80;1.80;;;;;;;7.07;93.15;99729.08;109737;1251;72653;-64
2023/10/18 00:16:24;;;;;;;7.30;1.60;;;;;;;7.09;93.28;99725.75;109673;1251;59803;-62
2023/10/18 00:19:12;;;;;;;7.60;2.20;;;;;;;7.14;93.32;99727.73;109731;1251;60307;-62
2023/10/18 00:22:00;;;;;;;7.10;1.90;;;;;;;7.17;93.36;99720.06;109632;1251;71519;-63
2023/10/18 00:24:47;;;;;;;6.10;1.80;;;;;;;7.21;93.46;99718.98;109652;1251;66596;-62
2023/10/18 00:27:34;;;;;;;7.40;1.90;;;;;;;7.23;94.02;99711.95;109551;1251;73679;-63
2023/10/18 00:30:22;;;;;;;8.20;2.00;;;;;;;7.25;94.30;99710.36;109198;1260;59336;-63
2023/10/18 00:33:09;;;;;;;7.40;1.70;;;;;;;7.28;94.34;99711.58;109356;1254;60092;-64
2023/10/18 00:35:57;;;;;;;6.30;1.60;;;;;;;7.29;94.88;99703.90;109360;1254;72522;-62
2023/10/18 00:38:44;;;;;;;6.60;1.80;;;;;;;7.29;95.74;99695.82;109375;1254;67805;-63
2023/10/18 00:41:34;;;;;;;5.90;1.50;;;;;;;7.28;96.16;99695.84;109372;1254;72770;-63
2023/10/18 00:44:21;;;;;;;7.50;1.70;;;;;;;7.27;97.11;99689.38;109222;1256;59466;-63
2023/10/18 00:47:13;;;;;;;6.30;1.60;;;;;;;7.25;97.43;99685.86;109323;1254;59333;-61
2023/10/18 00:49:59;;;;;;;6.20;1.60;;;;;;;7.23;97.83;99681.93;109323;1255;71219;-63
2023/10/18 00:52:46;;;;;;;6.00;1.50;;;;;;;7.19;98.23;99679.92;109255;1256;66693;-62
2023/10/18 00:55:34;;;;;;;6.80;1.80;;;;;;;7.13;98.36;99681.16;109211;1254;73648;-62
2023/10/18 00:58:22;;;;;;;5.70;1.50;;;;;;;7.07;98.90;99677.54;109211;1254;57946;-65
2023/10/18 01:01:09;;;;;;;6.80;1.70;;;;;;;6.99;99.85;99669.45;109434;1251;61104;-63
2023/10/18 01:03:56;;;;;;;7.60;2.10;;;;;;;6.93;99.91;99671.62;109675;1251;73092;-63
2023/10/18 01:06:47;;;;;;;7.70;2.10;;;;;;;6.88;100.00;99668.80;109498;1251;68794;-63
2023/10/18 01:09:34;;;;;;;6.40;1.80;;;;;;;6.84;100.00;99672.63;109496;1251;73411;-65
2023/10/18 01:12:21;;;;;;;6.90;2.10;;;;;;;6.83;100.00;99669.16;109576;1251;58443;-62
2023/10/18 01:15:08;;;;;;;7.10;2.10;;;;;;;6.81;100.00;99659.79;109619;1251;60620;-66
2023/10/18 01:17:54;;;;;;;6.70;2.00;;;;;;;6.86;100.00;99664.41;109628;1251;72840;-64
2023/10/18 01:20:46;;;;;;;6.60;1.60;;;;;;;6.84;100.00;99661.14;109643;1250;68256;-65
2023/10/18 01:23:33;;;;;;;7.00;2.30;;;;;;;6.80;100.00;99663.02;109714;1250;70862;-64
2023/10/18 01:26:25;;;;;;;7.00;2.20;;;;;;;6.76;100.00;99660.77;109457;1251;58053;-63
2023/10/18 01:29:11;;;;;;;7.20;2.10;;;;;;;6.72;100.00;99658.45;109554;1251;59032;-62
2023/10/18 01:31:58;;;;;;;6.50;2.00;;;;;;;6.66;100.00;99655.66;109698;1251;72860;-65
2023/10/18 01:34:44;;;;;;;7.00;2.20;;;;;;;6.63;100.00;99656.05;109573;1251;66037;-63
2023/10/18 01:37:31;;;;;;;8.50;2.50;;;;;;;6.62;100.00;99651.35;109723;1250;71294;-62
2023/10/18 01:41:08;;;;;;;9.70;2.80;;;;;;;6.64;100.00;99653.14;109745;1251;59706;-63
2023/10/18 01:43:29;;;;;;;9.50;2.70;;;;;;;6.70;100.00;99654.66;109661;1250;60088;-63
2023/10/18 01:46:16;;;;;;;6.80;2.40;;;;;;;6.78;100.00;99652.23;109549;1254;73337;-62
2023/10/18 01:49:07;;;;;;;6.80;2.10;;;;;;;6.82;100.00;99654.91;109625;1251;66437;-63
2023/10/18 01:51:54;;;;;;;8.00;2.40;;;;;;;6.89;100.00;99664.16;109333;1251;73682;-63
2023/10/18 01:54:41;;;;;;;7.90;2.00;;;;;;;6.94;100.00;99669.59;109573;1251;60426;-64
2023/10/18 01:57:27;;;;;;;5.90;2.00;;;;;;;7.01;100.00;99672.83;109531;1251;59044;-63
2023/10/18 02:00:37;;;;;;;6.40;1.70;;;;;;;7.06;100.00;99669.70;109686;1251;71825;-63
2023/10/18 02:03:24;;;;;;;6.20;2.00;;;;;;;7.09;100.00;99670.34;109539;1251;66241;-63
2023/10/18 02:06:14;;;;;;;8.10;2.30;;;;;;;7.10;100.00;99668.19;109618;1251;72544;-65
2023/10/18 02:09:00;;;;;;;7.30;2.50;;;;;;;7.11;100.00;99670.73;109674;1251;58105;-63
2023/10/18 02:11:48;;;;;;;8.50;2.80;;;;;;;7.12;100.00;99671.37;109531;1251;60405;-66
2023/10/18 02:14:38;;;;;;;8.30;2.70;;;;;;;7.12;100.00;99675.79;109708;1251;71576;-65
2023/10/18 02:17:24;;;;;;;6.60;2.00;;;;;;;7.11;100.00;99671.95;109731;1250;67782;-63
2023/10/18 02:20:27;;;;;;;7.10;2.20;;;;;;;7.10;100.00;99665.50;109731;1251;71091;-63
2023/10/18 02:23:14;;;;;;;8.10;2.60;;;;;;;7.10;100.00;99662.02;109708;1251;59606;-64
2023/10/18 02:26:27;;;;;;;6.30;2.20;;;;;;;7.09;100.00;99667.52;109534;1251;60408;-62
2023/10/18 02:29:13;;;;;;;8.30;2.10;;;;;;;7.11;100.00;99662.64;109561;1251;72931;-64
2023/10/18 02:32:04;;;;;;;6.40;2.10;;;;;;;7.12;100.00;99662.21;108715;1251;1002461;-64
2023/10/18 02:34:51;;;;;;;7.00;2.10;;;;;;;7.12;100.00;99660.06;109510;1251;73541;-64
2023/10/18 02:37:38;;;;;;;6.70;2.10;;;;;;;7.14;100.00;99663.67;109556;1251;60397;-62
2023/10/18 02:40:30;;;;;;;7.90;2.30;;;;;;;7.14;100.00;99659.94;109519;1253;60530;-64
2023/10/18 02:43:16;;;;;;;5.90;2.20;;;;;;;7.17;100.00;99652.48;109499;1251;72795;-64
2023/10/18 02:46:09;;;;;;;8.70;2.20;;;;;;;7.17;100.00;99649.72;109622;1251;67888;-64
2023/10/18 02:48:57;;;;;;;7.00;1.90;;;;;;;7.17;100.00;99645.99;109396;1254;71314;-65
2023/10/18 02:51:47;;;;;;;7.30;2.00;;;;;;;7.17;100.00;99644.73;109608;1253;59549;-63
2023/10/18 02:54:35;;;;;;;6.60;1.90;;;;;;;7.18;100.00;99641.71;109558;1251;58787;-64
2023/10/18 02:57:22;;;;;;;5.60;2.00;;;;;;;7.19;100.00;99637.55;109507;1253;72735;-64
2023/10/18 03:00:11;;;;;;;6.50;1.80;;;;;;;7.21;100.00;99641.50;109606;1251;67450;-62
2023/10/18 03:02:58;;;;;;;7.40;2.20;;;;;;;7.21;100.00;99637.63;109413;1251;73119;-63
2023/10/18 03:05:44;;;;;;;6.50;2.00;;;;;;;7.22;100.00;99637.38;109295;1251;59282;-63
2023/10/18 03:08:30;;;;;;;7.20;2.20;;;;;;;7.22;100.00;99632.23;109580;1251;60148;-64
2023/10/18 03:11:20;;;;;;;6.50;1.70;;;;;;;7.18;100.00;99628.79;109283;1251;73654;-63
2023/10/18 03:14:12;;;;;;;6.10;1.80;;;;;;;7.16;100.00;99633.52;109441;1251;67658;-63
2023/10/18 03:17:09;;;;;;;6.70;2.00;;;;;;;7.12;100.00;99637.17;109593;1254;72543;-64
2023/10/18 03:19:56;;;;;;;7.60;2.40;;;;;;;7.07;100.00;99627.13;109489;1251;59193;-64
2023/10/18 03:22:43;;;;;;;6.20;2.10;;;;;;;6.99;100.00;99622.58;109441;1251;59057;-62
2023/10/18 03:25:31;;;;;;;6.60;2.00;;;;;;;6.92;100.00;99623.89;109542;1251;71577;-64
2023/10/18 03:28:17;;;;;;;5.70;1.60;;;;;;;6.85;100.00;99624.05;109615;1251;67839;-63
2023/10/18 03:31:21;;;;;;;5.90;1.80;;;;;;;6.80;100.00;99622.27;109569;1251;72002;-62
2023/10/18 03:34:09;;;;;;;6.40;1.90;;;;;;;6.76;100.00;99618.67;109513;1251;60361;-63
2023/10/18 03:36:56;;;;;;;8.30;2.00;;;;;;;6.73;100.00;99619.04;109499;1251;61038;-62
2023/10/18 03:39:42;;;;;;;6.50;2.10;;;;;;;6.72;100.00;99613.85;109648;1251;70494;-63
2023/10/18 03:42:31;;;;;;;8.10;1.80;;;;;;;6.70;100.00;99608.48;109612;1251;68705;-63
2023/10/18 03:45:22;;;;;;;6.10;2.00;;;;;;;6.68;100.00;99607.76;109410;1251;72440;-62
2023/10/18 03:48:23;;;;;;;6.70;1.90;;;;;;;6.65;100.00;99601.95;109585;1251;59398;-64
2023/10/18 03:51:16;;;;;;;6.10;2.00;;;;;;;6.58;100.00;99594.29;109598;1251;58672;-64
2023/10/18 03:54:08;;;;;;;7.20;2.00;;;;;;;6.60;100.00;99598.05;109458;1251;72987;-63
2023/10/18 03:56:55;;;;;;;7.70;2.00;;;;;;;6.60;100.00;99598.73;109446;1251;67871;-63
2023/10/18 03:59:46;;;;;;;5.60;1.70;;;;;;;6.63;100.00;99596.13;109607;1251;71310;-64
2023/10/18 04:02:34;;;;;;;6.40;1.70;;;;;;;6.63;100.00;99594.71;109555;1251;58127;-63
2023/10/18 04:05:32;;;;;;;6.10;2.00;;;;;;;6.64;100.00;99589.13;109521;1251;59989;-63
2023/10/18 04:08:18;;;;;;;7.40;2.30;;;;;;;6.61;100.00;99577.17;109629;1251;72854;-66
2023/10/18 04:11:07;;;;;;;6.10;1.90;;;;;;;6.65;100.00;99579.41;109374;1252;67595;-66
2023/10/18 04:13:53;;;;;;;7.30;2.10;;;;;;;6.64;100.00;99575.55;109359;1251;73482;-63
2023/10/18 04:16:40;;;;;;;8.40;2.20;;;;;;;6.63;100.00;99573.14;109386;1251;59394;-63
2023/10/18 04:19:26;;;;;;;6.60;1.70;;;;;;;6.64;100.00;99576.25;109434;1252;60200;-63
2023/10/18 04:22:13;;;;;;;8.30;2.10;;;;;;;6.65;100.00;99582.38;109520;1253;71749;-61
2023/10/18 04:25:01;;;;;;;7.80;2.50;;;;;;;6.68;100.00;99578.14;109437;1251;68817;-62
2023/10/18 04:27:48;;;;;;;6.60;2.40;;;;;;;6.70;100.00;99578.52;109540;1252;72702;-63
2023/10/18 04:30:37;;;;;;;5.90;1.90;;;;;;;6.72;100.00;99573.64;109596;1251;59644;-62
2023/10/18 04:33:28;;;;;;;7.20;2.30;;;;;;;6.73;100.00;99572.14;109557;1251;60223;-63
2023/10/18 04:36:16;;;;;;;8.10;2.20;;;;;;;6.75;100.00;99571.98;109391;1251;74122;-64
2023/10/18 04:39:06;;;;;;;7.60;2.20;;;;;;;6.75;100.00;99568.30;109400;1251;67706;-63
2023/10/18 04:41:53;;;;;;;10.30;2.70;;;;;;;6.75;100.00;99572.89;109524;1251;72442;-63
2023/10/18 04:44:40;;;;;;;7.00;2.10;;;;;;;6.74;100.00;99570.13;109538;1251;58110;-63
2023/10/18 04:47:32;;;;;;;7.60;2.20;;;;;;;6.75;100.00;99574.34;109532;1251;60188;-62
2023/10/18 04:50:29;;;;;;;8.30;2.30;;;;;;;6.75;100.00;99579.23;109529;1251;72502;-62
2023/10/18 04:53:23;;;;;;;6.50;2.20;;;;;;;6.75;100.00;99578.35;109386;1251;69390;-63
2023/10/18 04:56:09;;;;;;;6.40;2.00;;;;;;;6.76;100.00;99577.90;109597;1253;72536;-62
2023/10/18 04:59:06;;;;;;;6.00;2.30;;;;;;;6.78;100.00;99579.00;109449;1251;60353;-63
2023/10/18 05:04:40;;;;;;;7.30;2.10;;;;;;;6.86;100.00;99581.35;109360;1251;72776;-63
2023/10/18 05:07:42;;;;;;;7.60;2.30;;;;;;;6.89;100.00;99584.43;109527;1253;67468;-64
2023/10/18 05:10:29;;;;;;;9.20;2.70;;;;;;;6.95;100.00;99585.78;109564;1253;71803;-69
2023/10/18 05:16:34;;;;;;;8.20;2.20;;;;;;;7.10;100.00;99592.14;109236;1251;60407;-61
2023/10/18 05:19:28;;;;;;;9.00;2.40;;;;;;;7.17;100.00;99593.63;109604;1251;72949;-64
2023/10/18 05:22:17;;;;;;;7.90;2.30;;;;;;;7.22;100.00;99591.98;109616;1251;68096;-61
2023/10/18 05:25:52;;;;;;;7.90;2.40;;;;;;;7.27;100.00;99589.50;109468;1251;72526;-67
2023/10/18 05:36:55;;;;;;;9.60;2.80;;;;;;;7.41;100.00;99589.92;109423;1251;66393;-62
2023/10/18 05:40:41;;;;;;;7.00;2.50;;;;;;;7.44;100.00;99591.67;109491;1251;73579;-63
2023/10/18 05:42:53;;;;;;;8.70;2.50;;;;;;;7.47;100.00;99589.88;109544;1251;59429;-64
2023/10/18 05:45:41;;;;;;;10.80;2.80;;;;;;;7.49;100.00;99585.83;109519;1251;61263;-61
2023/10/18 05:48:31;;;;;;;9.40;3.60;;;;;;;7.53;100.00;99585.91;109537;1251;72854;-65
2023/10/18 05:54:31;;;;;;;8.50;2.60;;;;;;;7.62;100.00;99593.88;109530;1251;72534;-62
2023/10/18 05:57:19;;;;;;;8.90;2.60;;;;;;;7.66;100.00;99590.44;109436;1251;58655;-65
2023/10/18 06:00:17;;;;;;;8.30;2.70;;;;;;;7.70;100.00;99596.67;109265;1252;60114;-66
2023/10/18 06:03:04;;;;;;;6.70;2.30;;;;;;;7.75;100.00;99596.16;109579;1251;72258;-66
2023/10/18 06:05:51;;;;;;;10.20;2.80;;;;;;;7.78;100.00;99598.54;109549;1251;67661;-65
2023/10/18 06:08:37;;;;;;;6.60;2.40;;;;;;;7.83;100.00;99600.50;109414;1251;72663;-65
2023/10/18 06:11:25;;;;;;;7.10;2.30;;;;;;;7.87;100.00;99600.76;109488;1253;58104;-64
2023/10/18 06:14:16;;;;;;;8.40;2.80;;;;;;;7.92;100.00;99594.75;109594;1251;58993;-64
2023/10/18 06:17:12;;;;;;;8.90;2.30;;;;;;;7.96;100.00;99593.33;109482;1251;72942;-63
2023/10/18 06:19:58;;;;;;;9.30;2.80;;;;;;;7.98;100.00;99589.67;109576;1251;66543;-64
2023/10/18 06:22:44;;;;;;;7.80;2.40;;;;;;;8.03;100.00;99588.97;109541;1251;72509;-62
2023/10/18 06:25:35;;;;;;;8.60;2.50;;;;;;;8.08;100.00;99585.38;109572;1252;58381;-65
2023/10/18 06:28:24;;;;;;;7.10;3.00;;;;;;;8.14;100.00;99590.46;109535;1253;60208;-64
2023/10/18 06:31:10;;;;;;;9.20;2.70;;;;;;;8.15;100.00;99592.80;109550;1251;73873;-63
2023/10/18 06:34:03;;;;;;;7.90;2.30;;;;;;;8.16;100.00;99597.01;109499;1251;68740;-64
2023/10/18 06:36:52;;;;;;;7.60;2.50;;;;;;;8.17;100.00;99593.16;109434;1251;72708;-66
2023/10/18 06:39:38;;;;;;;9.90;2.70;;;;;;;8.31;100.00;99594.27;109571;1251;59293;-67
2023/10/18 06:42:27;;;;;;;7.20;2.60;;;;;;;8.55;100.00;99593.41;109505;1251;58848;-64
2023/10/18 06:45:18;;;;;;;7.60;2.30;;;;;;;8.76;100.00;99596.20;109490;1251;72806;-64
2023/10/18 06:48:05;;;;;;;7.00;2.20;;;;;;;8.98;100.00;99605.33;109527;1251;66780;-66
2023/10/18 06:50:53;;;;;;;7.70;2.40;;;;;;;9.24;100.00;99603.60;109498;1251;71219;-64
2023/10/18 06:53:39;;;;;;;7.30;2.20;;;;;;;9.38;99.58;99606.00;109537;1251;59483;-63
2023/10/18 06:56:26;;;;;;;8.30;2.90;;;;;;;9.58;98.18;99606.56;109426;1251;61200;-65
2023/10/18 06:59:13;;;;;;;7.00;2.30;;;;;;;9.55;97.67;99610.00;109504;1251;72887;-63
2023/10/18 07:01:59;;;;;;;8.90;2.60;;;;;;;9.46;97.20;99612.33;109639;1251;68269;-63
2023/10/18 07:04:50;;;;;;;6.40;2.30;;;;;;;9.38;97.26;99610.08;109582;1251;71138;-63
2023/10/18 07:07:37;;;;;;;7.70;2.50;;;;;;;9.27;97.43;99610.64;109511;1251;57976;-63
2023/10/18 07:10:52;;;;;;;7.80;2.90;;;;;;;9.20;97.81;99607.27;109568;1251;60479;-66
2023/10/18 07:13:33;;;;;;;7.30;2.70;;;;;;;9.19;98.23;99609.81;109510;1251;74058;-67
2023/10/18 07:16:33;;;;;;;10.10;3.20;;;;;;;9.14;98.13;99605.79;109537;1251;66427;-63
2023/10/18 07:19:47;;;;;;;6.90;2.20;;;;;;;9.04;98.37;99615.77;109608;1251;71148;-63
2023/10/18 07:22:44;;;;;;;9.50;2.70;;;;;;;9.10;98.71;99617.80;109528;1251;57231;-64
2023/10/18 07:25:32;;;;;;;8.30;2.40;;;;;;;9.11;98.43;99614.71;109613;1253;60267;-65
2023/10/18 07:28:21;;;;;;;7.70;2.30;;;;;;;9.18;98.56;99615.38;109483;1251;71973;-62
2023/10/18 07:31:11;;;;;;;7.80;2.50;;;;;;;9.25;98.62;99608.45;109538;1251;66283;-61
2023/10/18 07:34:02;;;;;;;7.50;2.60;;;;;;;9.34;98.31;99609.23;109603;1251;72587;-65
2023/10/18 07:36:54;;;;;;;8.90;3.50;;;;;;;9.35;97.66;99618.66;109501;1251;59051;-64
2023/10/18 07:39:41;;;;;;;10.80;3.10;;;;;;;9.36;97.50;99612.23;109571;1251;60166;-63
2023/10/18 07:42:27;;;;;;;8.80;2.60;;;;;;;9.38;97.36;99611.65;109523;1251;73305;-65
2023/10/18 07:45:14;;;;;;;7.60;2.70;;;;;;;9.37;97.44;99613.73;109543;1251;67598;-63
2023/10/18 07:48:05;;;;;;;7.90;2.60;;;;;;;9.26;97.40;99612.17;109585;1251;72525;-62
2023/10/18 07:50:51;;;;;;;6.80;2.20;;;;;;;9.17;97.88;99620.43;109533;1251;59587;-63
2023/10/18 07:53:38;;;;;;;6.90;2.30;;;;;;;9.15;98.29;99618.52;109425;1251;60083;-65
2023/10/18 07:56:31;;;;;;;8.00;2.20;;;;;;;9.24;98.27;99618.65;109496;1253;71577;-65
2023/10/18 07:59:30;;;;;;;6.70;1.90;;;;;;;9.32;98.18;99623.17;108653;1251;1002289;-65
2023/10/18 08:02:26;;;;;;;8.00;2.20;;;;;;;9.28;97.92;99628.92;109580;1251;72554;-64
2023/10/18 08:05:21;;;;;;;6.50;2.00;;;;;;;9.26;98.06;99623.30;109410;1251;57805;-66
2023/10/18 08:08:08;;;;;;;8.70;2.40;;;;;;;9.27;98.71;99619.70;109501;1251;58805;-62
2023/10/18 08:10:55;;;;;;;8.10;2.20;;;;;;;9.28;98.32;99624.17;109509;1251;70574;-68
2023/10/18 08:13:47;;;;;;;8.70;2.70;;;;;;;9.27;98.11;99623.02;109297;1252;67743;-63
2023/10/18 08:16:43;;;;;;;7.40;2.20;;;;;;;9.27;98.27;99631.32;109581;1252;72642;-63
2023/10/18 08:19:32;;;;;;;7.60;2.20;;;;;;;9.28;98.41;99637.66;109515;1253;58225;-64
2023/10/18 08:25:21;;;;;;;7.50;2.40;;;;;;;9.17;98.47;99645.24;109607;1253;72911;-65
2023/10/18 08:28:13;;;;;;;6.40;2.30;;;;;;;9.15;99.08;99645.73;109655;1251;67683;-62
2023/10/18 08:31:10;;;;;;;9.20;2.90;;;;;;;9.16;99.27;99644.73;109517;1251;72442;-63
2023/10/18 08:33:56;;;;;;;9.20;2.70;;;;;;;9.26;99.42;99646.83;109427;1253;61216;-62
2023/10/18 08:36:50;;;;;;;7.30;2.50;;;;;;;9.32;99.18;99644.39;109410;1251;58686;-64
2023/10/18 08:39:40;;;;;;;8.00;2.00;;;;;;;9.45;99.37;99633.05;109559;1251;74044;-64
2023/10/18 08:42:39;;;;;;;7.20;2.40;;;;;;;9.83;98.69;99636.44;109602;1251;66656;-63
2023/10/18 08:45:25;;;;;;;8.00;2.20;;;;;;;10.13;97.01;99637.34;109476;1251;71044;-63
2023/10/18 08:48:28;;;;;;;7.00;2.40;;;;;;;10.21;95.52;99631.55;109535;1251;57798;-63
2023/10/18 08:51:15;;;;;;;7.10;2.40;;;;;;;10.18;95.06;99634.13;109570;1252;60244;-65
2023/10/18 08:54:02;;;;;;;6.10;2.20;;;;;;;10.20;94.74;99638.92;109593;1253;71926;-66
2023/10/18 08:56:51;;;;;;;8.00;2.50;;;;;;;10.11;94.86;99647.64;109593;1251;66389;-63
2023/10/18 08:59:50;;;;;;;9.10;3.10;;;;;;;10.03;95.17;99650.73;109372;1251;73430;-65
2023/10/18 09:02:39;;;;;;;6.60;2.60;;;;;;;10.12;95.78;99650.42;109575;1251;59313;-63
2023/10/18 09:05:26;;;;;;;7.70;2.50;;;;;;;10.48;95.21;99646.90;109542;1251;61219;-64
2023/10/18 09:08:19;;;;;;;7.90;2.60;;;;;;;10.80;94.07;99645.63;109541;1251;71790;-62
2023/10/18 09:11:21;;;;;;;7.00;2.50;;;;;;;11.30;92.16;99644.21;109543;1254;66547;-63
2023/10/18 09:14:08;;;;;;;7.40;2.30;;;;;;;12.05;90.68;99646.15;109490;1251;72545;-62
2023/10/18 09:17:00;;;;;;;7.80;2.40;;;;;;;12.46;88.62;99641.73;109580;1251;59453;-63
2023/10/18 09:19:51;;;;;;;7.70;3.00;;;;;;;12.87;85.55;99645.90;109608;1251;60279;-64
2023/10/18 09:22:38;;;;;;;8.00;2.30;;;;;;;13.30;81.82;99643.46;109509;1251;71841;-62
2023/10/18 09:25:24;;;;;;;6.50;2.00;;;;;;;13.49;81.51;99637.34;109382;1251;66594;-67
2023/10/18 09:28:11;;;;;;;6.70;2.40;;;;;;;14.28;79.01;99640.35;109344;1253;73472;-64
2023/10/18 09:31:18;;;;;;;6.60;2.30;;;;;;;16.27;73.80;99635.53;109528;1251;59405;-64
2023/10/18 09:34:09;;;;;;;6.70;2.10;;;;;;;18.86;64.08;99630.40;109546;1251;59027;-65
2023/10/18 09:36:56;;;;;;;6.60;2.00;;;;;;;20.42;56.14;99632.63;109515;1251;74075;-62
2023/10/18 09:39:44;;;;;;;6.10;1.80;;;;;;;20.70;54.39;99633.43;109509;1251;66714;-66
2023/10/18 09:42:31;;;;;;;6.20;1.70;;;;;;;20.94;53.15;99631.27;109608;1251;71517;-63
2023/10/18 09:45:20;;;;;;;7.30;2.20;;;;;;;22.07;49.00;99635.23;109564;1251;57666;-65
2023/10/18 09:48:11;;;;;;;6.60;2.00;;;;;;;23.55;46.61;99628.44;109519;1251;61453;-63
2023/10/18 09:51:10;;;;;;;6.50;1.70;;;;;;;24.97;42.97;99630.00;109552;1251;72726;-65
2023/10/18 09:53:56;;;;;;;6.30;1.60;;;;;;;26.20;39.72;99630.59;109551;1251;66897;-68
2023/10/18 09:56:45;;;;;;;7.20;1.70;;;;;;;25.59;37.91;99633.36;109439;1251;71654;-66
2023/10/18 09:59:37;;;;;;;6.50;1.80;;;;;;;23.95;40.41;99631.73;109407;1253;57668;-64
2023/10/18 10:02:25;;;;;;;6.60;1.90;;;;;;;24.08;41.68;99633.49;109428;1252;60315;-64
2023/10/18 10:05:26;;;;;;;6.90;1.90;;;;;;;24.64;39.98;99631.23;109448;1251;74072;-62
2023/10/18 10:08:13;;;;;;;5.80;1.90;;;;;;;24.11;40.51;99633.11;109401;1253;67883;-63
2023/10/18 10:11:12;;;;;;;7.60;2.10;;;;;;;24.40;39.69;99635.46;109549;1251;73222;-64
2023/10/18 10:14:00;;;;;;;8.60;2.20;;;;;;;23.16;41.53;99644.00;109399;1251;57812;-63
2023/10/18 10:17:07;;;;;;;8.80;2.50;;;;;;;22.02;43.16;99649.60;109594;1251;60523;-64
2023/10/18 10:20:13;;;;;;;6.90;1.90;;;;;;;20.61;45.97;99649.67;109562;1254;70656;-61
2023/10/18 10:23:13;;;;;;;7.60;2.20;;;;;;;19.29;49.13;99654.02;109609;1251;67762;-67
2023/10/18 10:26:28;;;;;;;6.70;1.60;;;;;;;18.28;51.86;99661.11;109454;1251;72611;-63
2023/10/18 10:32:18;;;;;;;7.90;1.70;;;;;;;17.69;55.41;99649.45;109468;1251;60072;-62
2023/10/18 10:35:19;;;;;;;6.60;1.90;;;;;;;17.43;56.30;99645.36;109375;1254;72610;-62
2023/10/18 10:38:13;;;;;;;7.40;1.90;;;;;;;17.20;57.64;99642.69;109459;1253;68264;-62
2023/10/18 10:41:19;;;;;;;6.00;1.50;;;;;;;16.50;58.18;99643.42;109587;1251;73655;-67
2023/10/18 10:44:22;;;;;;;7.60;2.30;;;;;;;16.37;60.55;99649.26;109358;1251;244171;-65
2023/10/18 10:47:29;;;;;;;7.20;2.00;;;;;;;18.46;56.74;99643.34;109541;1251;61093;-65
2023/10/18 10:51:06;;;;;;;7.60;2.10;;;;;;;19.33;51.71;99633.13;109572;1251;72982;-64
2023/10/18 10:54:00;;;;;;;8.80;2.30;;;;;;;17.99;53.61;99637.02;109440;1255;66559;-63
2023/10/18 10:56:53;;;;;;;6.60;1.60;;;;;;;16.94;56.07;99632.48;109492;1253;72949;-64
2023/10/18 10:59:51;;;;;;;6.70;1.80;;;;;;;16.10;58.67;99634.30;109568;1252;57301;-63
2023/10/18 11:02:39;;;;;;;8.20;1.70;;;;;;;15.48;61.65;99632.58;109562;1253;60639;-64
2023/10/18 11:05:25;;;;;;;7.50;2.00;;;;;;;14.88;63.94;99627.77;109526;1252;71850;-66
2023/10/18 11:08:12;;;;;;;7.00;1.80;;;;;;;14.96;65.50;99632.80;109624;1253;67979;-65
2023/10/18 11:11:00;;;;;;;7.80;2.10;;;;;;;15.52;64.54;99633.09;109438;1253;73757;-65
2023/10/18 11:13:46;;;;;;;7.90;2.10;;;;;;;15.89;63.04;99632.26;109558;1252;57365;-61
2023/10/18 11:16:32;;;;;;;8.20;2.10;;;;;;;15.92;62.38;99628.23;109464;1255;59458;-65
2023/10/18 11:19:18;;;;;;;9.10;2.40;;;;;;;15.88;62.60;99622.39;109585;1252;73727;-62
2023/10/18 11:22:05;;;;;;;8.20;2.30;;;;;;;15.64;63.54;99623.24;109610;1253;66510;-61
2023/10/18 11:24:55;;;;;;;8.50;2.10;;;;;;;15.72;63.57;99627.59;109571;1251;72764;-64
2023/10/18 11:27:42;;;;;;;8.00;1.90;;;;;;;15.65;63.27;99628.84;109538;1251;58100;-65
2023/10/18 11:30:28;;;;;;;7.50;1.80;;;;;;;15.85;63.83;99624.80;109634;1251;59374;-64
2023/10/18 11:33:17;;;;;;;7.40;1.80;;;;;;;15.80;63.44;99624.98;109541;1253;73088;-64
2023/10/18 11:36:08;;;;;;;7.40;1.70;;;;;;;15.59;63.78;99624.10;109566;1253;68599;-64
2023/10/18 11:42:00;;;;;;;7.40;1.90;;;;;;;16.99;59.15;99619.91;109510;1253;57961;-63
2023/10/18 11:44:52;;;;;;;8.80;2.10;;;;;;;17.64;57.62;99618.60;109575;1252;59766;-63
2023/10/18 11:47:51;;;;;;;6.40;1.40;;;;;;;18.04;56.26;99619.41;109533;1256;72652;-64
2023/10/18 11:50:48;;;;;;;6.00;1.40;;;;;;;18.11;55.11;99626.27;109564;1254;66377;-65
2023/10/18 11:53:35;;;;;;;7.90;1.80;;;;;;;18.38;54.44;99624.60;109521;1254;72661;-62
2023/10/18 11:56:21;;;;;;;6.70;1.70;;;;;;;18.07;54.92;99621.98;109629;1251;58831;-63
2023/10/18 11:59:08;;;;;;;7.00;1.90;;;;;;;17.65;54.94;99617.25;109607;1254;60293;-66
2023/10/18 12:02:04;;;;;;;7.60;1.60;;;;;;;17.18;56.60;99614.50;109603;1252;73754;-65
2023/10/18 12:04:52;;;;;;;6.30;1.80;;;;;;;16.76;58.02;99617.29;109526;1252;67888;-63
2023/10/18 12:07:44;;;;;;;7.30;1.80;;;;;;;16.31;58.57;99615.20;109583;1252;73498;-63
2023/10/18 12:10:34;;;;;;;7.60;2.00;;;;;;;16.47;58.69;99611.73;109362;1252;57667;-65
2023/10/18 12:13:20;;;;;;;6.30;1.60;;;;;;;16.64;58.43;99617.16;109492;1254;61080;-63
2023/10/18 12:16:08;;;;;;;6.30;1.50;;;;;;;16.42;59.06;99618.29;109570;1251;74157;-65
2023/10/18 12:18:55;;;;;;;7.40;1.50;;;;;;;16.53;59.54;99614.60;109526;1253;68028;-63
2023/10/18 12:21:48;;;;;;;7.80;1.80;;;;;;;16.55;59.57;99612.44;109533;1251;73466;-64
2023/10/18 12:24:37;;;;;;;6.50;1.70;;;;;;;16.69;59.28;99613.80;109558;1251;57813;-62
2023/10/18 12:27:38;;;;;;;5.60;1.40;;;;;;;16.80;58.79;99609.17;109422;1253;61151;-63
2023/10/18 12:30:38;;;;;;;6.20;1.50;;;;;;;17.04;57.75;99604.55;109557;1254;72900;-64
2023/10/18 12:33:27;;;;;;;6.50;1.70;;;;;;;17.24;57.82;99599.42;109581;1254;67587;-66
2023/10/18 12:36:22;;;;;;;7.10;1.80;;;;;;;17.34;57.19;99599.38;109589;1254;72632;-66
2023/10/18 12:39:09;;;;;;;6.80;1.50;;;;;;;17.30;55.83;99599.70;109585;1251;57595;-63
2023/10/18 12:41:57;;;;;;;8.10;1.90;;;;;;;17.07;55.96;99597.15;109662;1251;61401;-63
2023/10/18 12:44:46;;;;;;;7.50;1.70;;;;;;;16.81;56.80;99590.27;109609;1251;73470;-64
2023/10/18 12:47:32;;;;;;;6.50;1.40;;;;;;;16.61;57.13;99595.54;109588;1251;66509;-64
2023/10/18 12:50:19;;;;;;;6.80;1.80;;;;;;;16.27;57.47;99596.81;109455;1254;73007;-65
2023/10/18 13:01:59;;;;;;;6.50;1.60;;;;;;;15.25;58.94;99591.93;109663;1251;68746;-64
2023/10/18 13:04:50;;;;;;;8.20;1.70;;;;;;;15.36;60.30;99602.09;109524;1251;72407;-64
2023/10/18 13:07:37;;;;;;;6.70;1.40;;;;;;;15.33;60.14;99600.73;109601;1251;57434;-64
2023/10/18 13:10:32;;;;;;;8.50;1.30;;;;;;;15.13;57.76;99597.30;109404;1251;58757;-65
2023/10/18 13:13:18;;;;;;;7.20;1.40;;;;;;;15.00;57.87;99594.21;109401;1251;72595;-62
2023/10/18 13:16:05;;;;;;;8.40;1.80;;;;;;;14.79;58.28;99598.85;109616;1251;67901;-67
2023/10/18 13:18:51;;;;;;;6.80;1.30;;;;;;;14.56;59.25;99598.45;109542;1252;73558;-62
2023/10/18 13:21:39;;;;;;;6.30;1.90;;;;;;;14.28;60.29;99600.56;109547;1254;57878;-64
2023/10/18 13:24:28;;;;;;;6.30;1.80;;;;;;;13.91;61.72;99599.08;109656;1251;59215;-64
2023/10/18 13:27:27;;;;;;;7.20;1.70;;;;;;;13.49;62.44;99598.52;109633;1251;74080;-66
2023/10/18 13:30:32;;;;;;;7.70;1.80;;;;;;;13.09;63.54;99603.05;109551;1251;68760;-64
2023/10/18 13:33:19;;;;;;;7.30;1.90;;;;;;;12.75;65.45;99600.73;109601;1251;73586;-63
2023/10/18 13:36:09;;;;;;;7.30;1.80;;;;;;;12.55;66.80;99594.98;109407;1251;57974;-64
2023/10/18 13:38:56;;;;;;;7.90;2.10;;;;;;;12.37;67.70;99596.63;109560;1257;58921;-68
2023/10/18 13:41:47;;;;;;;8.80;2.20;;;;;;;12.27;68.30;99598.08;109441;1251;70754;-62
2023/10/18 13:44:33;;;;;;;6.50;1.50;;;;;;;12.18;68.85;99600.46;109568;1251;68725;-65
2023/10/18 13:47:20;;;;;;;10.20;1.80;;;;;;;12.11;68.88;99599.67;109575;1251;72401;-64
2023/10/18 13:50:10;;;;;;;7.70;1.50;;;;;;;12.07;69.43;99596.85;109326;1251;57369;-65
2023/10/18 13:52:57;;;;;;;8.30;1.70;;;;;;;12.06;69.49;99596.09;109555;1253;60471;-64